sensor_id;sensor_type;location;lat;lon;timestamp;P1;durP1;ratioP1;P2;durP2;ratioP2
20101;SDS011;10210;52.284;9.892;2024-03-23T00:54:49;12.17;;;3.53;;
20101;SDS011;10210;52.284;9.892;2024-03-23T00:57:15;11.50;;;3.63;;
20101;SDS011;10210;52.284;9.892;2024-03-23T00:59:41;14.63;;;3.50;;
20101;SDS011;10210;52.284;9.892;2024-03-23T01:02:07;11.17;;;3.37;;
20101;SDS011;10210;52.284;9.892;2024-03-23T01:04:33;11.97;;;3.83;;
20101;SDS011;10210;52.284;9.892;2024-03-23T01:06:59;12.80;;;3.80;;
20101;SDS011;10210;52.284;9.892;2024-03-23T01:09:25;11.30;;;3.57;;
20101;SDS011;10210;52.284;9.892;2024-03-23T01:11:51;14.50;;;4.00;;
20101;SDS011;10210;52.284;9.892;2024-03-23T01:14:17;14.20;;;3.73;;
20101;SDS011;10210;52.284;9.892;2024-03-23T01:16:43;14.23;;;4.10;;
20101;SDS011;10210;52.284;9.892;2024-03-23T01:19:09;13.43;;;4.10;;
20101;SDS011;10210;52.284;9.892;2024-03-23T01:21:35;11.37;;;3.80;;
20101;SDS011;10210;52.284;9.892;2024-03-23T01:24:01;14.03;;;3.77;;
20101;SDS011;10210;52.284;9.892;2024-03-23T01:26:27;11.93;;;3.83;;
20101;SDS011;10210;52.284;9.892;2024-03-23T01:28:53;12.30;;;3.90;;
20101;SDS011;10210;52.284;9.892;2024-03-23T01:31:20;13.90;;;3.90;;
20101;SDS011;10210;52.284;9.892;2024-03-23T01:33:46;13.17;;;3.63;;
20101;SDS011;10210;52.284;9.892;2024-03-23T01:36:12;14.83;;;3.60;;
20101;SDS011;10210;52.284;9.892;2024-03-23T01:38:38;12.37;;;3.80;;
20101;SDS011;10210;52.284;9.892;2024-03-23T01:41:05;11.83;;;3.83;;
20101;SDS011;10210;52.284;9.892;2024-03-23T01:43:31;14.07;;;4.07;;
20101;SDS011;10210;52.284;9.892;2024-03-23T01:45:57;11.80;;;3.73;;
20101;SDS011;10210;52.284;9.892;2024-03-23T01:48:23;13.90;;;4.20;;
20101;SDS011;10210;52.284;9.892;2024-03-23T01:50:49;16.40;;;3.97;;
20101;SDS011;10210;52.284;9.892;2024-03-23T01:53:15;12.93;;;4.10;;
20101;SDS011;10210;52.284;9.892;2024-03-23T01:55:46;13.87;;;4.03;;
20101;SDS011;10210;52.284;9.892;2024-03-23T01:58:13;16.30;;;4.27;;
20101;SDS011;10210;52.284;9.892;2024-03-23T02:00:39;14.73;;;3.87;;
20101;SDS011;10210;52.284;9.892;2024-03-23T02:03:25;15.10;;;4.50;;
20101;SDS011;10210;52.284;9.892;2024-03-23T02:05:52;14.27;;;4.17;;
20101;SDS011;10210;52.284;9.892;2024-03-23T02:08:20;11.93;;;3.90;;
20101;SDS011;10210;52.284;9.892;2024-03-23T02:10:47;10.60;;;3.67;;
20101;SDS011;10210;52.284;9.892;2024-03-23T02:13:17;17.50;;;4.33;;
20101;SDS011;10210;52.284;9.892;2024-03-23T02:15:44;10.70;;;3.73;;
20101;SDS011;10210;52.284;9.892;2024-03-23T02:18:10;12.67;;;3.93;;
20101;SDS011;10210;52.284;9.892;2024-03-23T02:20:36;12.50;;;3.80;;
20101;SDS011;10210;52.284;9.892;2024-03-23T02:23:12;11.93;;;3.83;;
20101;SDS011;10210;52.284;9.892;2024-03-23T02:25:39;12.90;;;3.67;;
20101;SDS011;10210;52.284;9.892;2024-03-23T02:28:05;11.70;;;3.67;;
20101;SDS011;10210;52.284;9.892;2024-03-23T02:30:31;13.27;;;4.13;;
20101;SDS011;10210;52.284;9.892;2024-03-23T02:32:57;12.27;;;3.37;;
20101;SDS011;10210;52.284;9.892;2024-03-23T02:35:23;11.27;;;3.30;;
20101;SDS011;10210;52.284;9.892;2024-03-23T02:37:49;13.97;;;3.43;;
20101;SDS011;10210;52.284;9.892;2024-03-23T02:40:16;13.30;;;3.33;;
20101;SDS011;10210;52.284;9.892;2024-03-23T02:42:42;11.80;;;3.00;;
20101;SDS011;10210;52.284;9.892;2024-03-23T02:45:08;10.77;;;2.97;;
20101;SDS011;10210;52.284;9.892;2024-03-23T02:47:35;13.17;;;3.57;;
20101;SDS011;10210;52.284;9.892;2024-03-23T02:50:01;11.30;;;3.03;;
20101;SDS011;10210;52.284;9.892;2024-03-23T02:52:27;10.50;;;2.87;;
20101;SDS011;10210;52.284;9.892;2024-03-23T02:54:53;10.07;;;3.13;;
20101;SDS011;10210;52.284;9.892;2024-03-23T02:57:19;12.27;;;3.20;;
20101;SDS011;10210;52.284;9.892;2024-03-23T02:59:45;12.93;;;3.67;;
20101;SDS011;10210;52.284;9.892;2024-03-23T03:02:11;11.73;;;3.00;;
20101;SDS011;10210;52.284;9.892;2024-03-23T03:04:38;12.20;;;2.90;;
20101;SDS011;10210;52.284;9.892;2024-03-23T03:07:04;13.23;;;3.20;;
20101;SDS011;10210;52.284;9.892;2024-03-23T03:09:30;11.70;;;3.60;;
20101;SDS011;10210;52.284;9.892;2024-03-23T03:11:57;13.70;;;3.93;;
20101;SDS011;10210;52.284;9.892;2024-03-23T03:14:23;13.27;;;3.70;;
20101;SDS011;10210;52.284;9.892;2024-03-23T03:16:50;16.53;;;4.10;;
20101;SDS011;10210;52.284;9.892;2024-03-23T03:19:16;13.53;;;3.90;;
20101;SDS011;10210;52.284;9.892;2024-03-23T03:21:42;13.13;;;4.00;;
20101;SDS011;10210;52.284;9.892;2024-03-23T03:24:08;9.87;;;3.20;;
20101;SDS011;10210;52.284;9.892;2024-03-23T03:26:34;13.43;;;3.87;;
20101;SDS011;10210;52.284;9.892;2024-03-23T03:29:00;12.97;;;3.53;;
20101;SDS011;10210;52.284;9.892;2024-03-23T03:31:27;13.40;;;4.30;;
20101;SDS011;10210;52.284;9.892;2024-03-23T03:33:53;12.50;;;4.03;;
20101;SDS011;10210;52.284;9.892;2024-03-23T03:36:19;10.60;;;3.90;;
20101;SDS011;10210;52.284;9.892;2024-03-23T03:38:47;12.90;;;4.30;;
20101;SDS011;10210;52.284;9.892;2024-03-23T03:41:13;14.90;;;4.40;;
20101;SDS011;10210;52.284;9.892;2024-03-23T03:43:39;12.57;;;4.57;;
20101;SDS011;10210;52.284;9.892;2024-03-23T03:46:08;14.80;;;4.93;;
20101;SDS011;10210;52.284;9.892;2024-03-23T03:48:35;14.17;;;4.97;;
20101;SDS011;10210;52.284;9.892;2024-03-23T03:51:02;13.80;;;5.17;;
20101;SDS011;10210;52.284;9.892;2024-03-23T03:53:28;13.00;;;4.83;;
20101;SDS011;10210;52.284;9.892;2024-03-23T03:55:55;15.27;;;5.53;;
20101;SDS011;10210;52.284;9.892;2024-03-23T03:58:25;14.13;;;4.90;;
20101;SDS011;10210;52.284;9.892;2024-03-23T04:00:51;13.23;;;5.00;;
20101;SDS011;10210;52.284;9.892;2024-03-23T04:03:17;13.43;;;4.60;;
20101;SDS011;10210;52.284;9.892;2024-03-23T04:05:43;14.57;;;4.47;;
20101;SDS011;10210;52.284;9.892;2024-03-23T04:08:14;16.03;;;4.40;;
20101;SDS011;10210;52.284;9.892;2024-03-23T04:10:41;13.87;;;4.60;;
20101;SDS011;10210;52.284;9.892;2024-03-23T04:13:07;14.37;;;4.33;;
20101;SDS011;10210;52.284;9.892;2024-03-23T04:15:33;13.83;;;4.20;;
20101;SDS011;10210;52.284;9.892;2024-03-23T04:17:59;13.33;;;3.90;;
20101;SDS011;10210;52.284;9.892;2024-03-23T04:20:25;13.77;;;3.97;;
20101;SDS011;10210;52.284;9.892;2024-03-23T04:22:51;12.10;;;3.47;;
20101;SDS011;10210;52.284;9.892;2024-03-23T04:25:18;13.33;;;3.43;;
20101;SDS011;10210;52.284;9.892;2024-03-23T04:27:44;13.03;;;4.23;;
20101;SDS011;10210;52.284;9.892;2024-03-23T04:30:12;11.57;;;3.80;;
20101;SDS011;10210;52.284;9.892;2024-03-23T04:32:38;12.10;;;3.70;;
20101;SDS011;10210;52.284;9.892;2024-03-23T04:35:05;12.40;;;3.43;;
20101;SDS011;10210;52.284;9.892;2024-03-23T04:37:34;13.13;;;3.70;;
20101;SDS011;10210;52.284;9.892;2024-03-23T04:40:01;10.83;;;3.33;;
20101;SDS011;10210;52.284;9.892;2024-03-23T04:42:28;10.47;;;3.23;;
20101;SDS011;10210;52.284;9.892;2024-03-23T04:44:54;11.87;;;3.13;;
20101;SDS011;10210;52.284;9.892;2024-03-23T04:47:21;11.83;;;3.20;;
20101;SDS011;10210;52.284;9.892;2024-03-23T04:49:47;13.97;;;3.50;;
20101;SDS011;10210;52.284;9.892;2024-03-23T04:52:13;16.30;;;4.00;;
20101;SDS011;10210;52.284;9.892;2024-03-23T04:54:40;13.10;;;3.40;;
20101;SDS011;10210;52.284;9.892;2024-03-23T04:57:08;10.03;;;2.60;;
20101;SDS011;10210;52.284;9.892;2024-03-23T04:59:34;14.00;;;3.13;;
20101;SDS011;10210;52.284;9.892;2024-03-23T05:02:00;10.80;;;2.60;;
20101;SDS011;10210;52.284;9.892;2024-03-23T05:04:27;14.17;;;2.57;;
20101;SDS011;10210;52.284;9.892;2024-03-23T05:06:53;10.30;;;2.50;;
20101;SDS011;10210;52.284;9.892;2024-03-23T05:09:19;11.40;;;2.40;;
20101;SDS011;10210;52.284;9.892;2024-03-23T05:11:47;10.87;;;2.47;;
20101;SDS011;10210;52.284;9.892;2024-03-23T05:14:13;7.77;;;2.23;;
20101;SDS011;10210;52.284;9.892;2024-03-23T05:16:40;10.93;;;2.50;;
20101;SDS011;10210;52.284;9.892;2024-03-23T05:19:07;10.43;;;2.40;;
20101;SDS011;10210;52.284;9.892;2024-03-23T05:21:33;7.30;;;2.13;;
20101;SDS011;10210;52.284;9.892;2024-03-23T05:23:59;10.87;;;2.50;;
20101;SDS011;10210;52.284;9.892;2024-03-23T05:26:25;13.23;;;2.60;;
20101;SDS011;10210;52.284;9.892;2024-03-23T05:28:51;9.53;;;2.50;;
20101;SDS011;10210;52.284;9.892;2024-03-23T05:31:24;12.67;;;2.57;;
20101;SDS011;10210;52.284;9.892;2024-03-23T05:33:50;12.63;;;2.93;;
20101;SDS011;10210;52.284;9.892;2024-03-23T05:36:17;15.97;;;3.10;;
20101;SDS011;10210;52.284;9.892;2024-03-23T05:38:43;8.40;;;2.37;;
20101;SDS011;10210;52.284;9.892;2024-03-23T05:41:09;12.50;;;2.50;;
20101;SDS011;10210;52.284;9.892;2024-03-23T05:43:35;11.73;;;2.83;;
20101;SDS011;10210;52.284;9.892;2024-03-23T05:46:01;11.70;;;2.97;;
20101;SDS011;10210;52.284;9.892;2024-03-23T05:48:29;12.17;;;2.33;;
20101;SDS011;10210;52.284;9.892;2024-03-23T05:50:56;11.83;;;2.33;;
20101;SDS011;10210;52.284;9.892;2024-03-23T05:53:22;12.43;;;2.80;;
20101;SDS011;10210;52.284;9.892;2024-03-23T05:55:49;12.37;;;2.33;;
20101;SDS011;10210;52.284;9.892;2024-03-23T05:58:18;10.33;;;2.30;;
20101;SDS011;10210;52.284;9.892;2024-03-23T06:00:45;11.67;;;2.17;;
20101;SDS011;10210;52.284;9.892;2024-03-23T06:03:12;7.80;;;2.20;;
20101;SDS011;10210;52.284;9.892;2024-03-23T06:05:38;9.13;;;1.83;;
20101;SDS011;10210;52.284;9.892;2024-03-23T06:08:04;7.97;;;2.37;;
20101;SDS011;10210;52.284;9.892;2024-03-23T06:10:34;11.07;;;2.27;;
20101;SDS011;10210;52.284;9.892;2024-03-23T06:13:00;11.67;;;2.20;;
20101;SDS011;10210;52.284;9.892;2024-03-23T06:15:26;11.27;;;1.80;;
20101;SDS011;10210;52.284;9.892;2024-03-23T06:17:52;9.67;;;1.93;;
20101;SDS011;10210;52.284;9.892;2024-03-23T06:20:18;7.20;;;1.90;;
20101;SDS011;10210;52.284;9.892;2024-03-23T06:22:44;8.43;;;1.87;;
20101;SDS011;10210;52.284;9.892;2024-03-23T06:25:10;9.30;;;1.83;;
20101;SDS011;10210;52.284;9.892;2024-03-23T06:27:37;10.50;;;1.60;;
20101;SDS011;10210;52.284;9.892;2024-03-23T06:30:07;9.27;;;1.70;;
20101;SDS011;10210;52.284;9.892;2024-03-23T06:32:33;8.23;;;1.77;;
20101;SDS011;10210;52.284;9.892;2024-03-23T06:34:59;8.60;;;1.90;;
20101;SDS011;10210;52.284;9.892;2024-03-23T06:37:30;8.27;;;1.70;;
20101;SDS011;10210;52.284;9.892;2024-03-23T06:39:56;8.13;;;1.60;;
20101;SDS011;10210;52.284;9.892;2024-03-23T06:42:22;9.43;;;1.77;;
20101;SDS011;10210;52.284;9.892;2024-03-23T06:44:48;8.23;;;2.10;;
20101;SDS011;10210;52.284;9.892;2024-03-23T06:47:15;12.83;;;2.43;;
20101;SDS011;10210;52.284;9.892;2024-03-23T06:49:41;7.97;;;1.80;;
20101;SDS011;10210;52.284;9.892;2024-03-23T06:52:07;11.60;;;2.47;;
20101;SDS011;10210;52.284;9.892;2024-03-23T06:54:33;8.27;;;1.80;;
20101;SDS011;10210;52.284;9.892;2024-03-23T06:56:59;11.30;;;2.10;;
20101;SDS011;10210;52.284;9.892;2024-03-23T06:59:25;9.87;;;2.00;;
20101;SDS011;10210;52.284;9.892;2024-03-23T07:01:51;10.20;;;2.30;;
20101;SDS011;10210;52.284;9.892;2024-03-23T07:04:17;9.87;;;1.90;;
20101;SDS011;10210;52.284;9.892;2024-03-23T07:06:44;10.83;;;2.57;;
20101;SDS011;10210;52.284;9.892;2024-03-23T07:09:10;8.73;;;2.03;;
20101;SDS011;10210;52.284;9.892;2024-03-23T07:11:37;9.80;;;2.10;;
20101;SDS011;10210;52.284;9.892;2024-03-23T07:14:03;9.80;;;2.60;;
20101;SDS011;10210;52.284;9.892;2024-03-23T07:16:29;10.20;;;1.93;;
20101;SDS011;10210;52.284;9.892;2024-03-23T07:18:56;13.33;;;3.50;;
20101;SDS011;10210;52.284;9.892;2024-03-23T07:21:22;10.37;;;2.27;;
20101;SDS011;10210;52.284;9.892;2024-03-23T07:23:48;10.83;;;2.13;;
20101;SDS011;10210;52.284;9.892;2024-03-23T07:26:14;7.13;;;2.10;;
20101;SDS011;10210;52.284;9.892;2024-03-23T07:28:43;13.57;;;2.70;;
20101;SDS011;10210;52.284;9.892;2024-03-23T07:31:12;10.83;;;2.30;;
20101;SDS011;10210;52.284;9.892;2024-03-23T07:33:43;10.37;;;2.10;;
20101;SDS011;10210;52.284;9.892;2024-03-23T07:36:10;13.50;;;2.80;;
20101;SDS011;10210;52.284;9.892;2024-03-23T07:38:37;12.53;;;3.40;;
20101;SDS011;10210;52.284;9.892;2024-03-23T07:41:07;13.30;;;2.70;;
20101;SDS011;10210;52.284;9.892;2024-03-23T07:43:35;10.63;;;3.00;;
20101;SDS011;10210;52.284;9.892;2024-03-23T07:46:06;11.67;;;3.03;;
20101;SDS011;10210;52.284;9.892;2024-03-23T07:48:32;15.43;;;3.30;;
20101;SDS011;10210;52.284;9.892;2024-03-23T07:53:28;12.93;;;3.43;;
20101;SDS011;10210;52.284;9.892;2024-03-23T07:55:55;15.40;;;3.70;;
20101;SDS011;10210;52.284;9.892;2024-03-23T07:58:23;16.60;;;4.20;;
20101;SDS011;10210;52.284;9.892;2024-03-23T08:00:49;13.40;;;3.27;;
20101;SDS011;10210;52.284;9.892;2024-03-23T08:03:15;14.00;;;3.77;;
20101;SDS011;10210;52.284;9.892;2024-03-23T08:05:42;15.20;;;3.47;;
20101;SDS011;10210;52.284;9.892;2024-03-23T08:08:08;12.97;;;3.70;;
20101;SDS011;10210;52.284;9.892;2024-03-23T08:10:34;13.90;;;3.60;;
20101;SDS011;10210;52.284;9.892;2024-03-23T08:13:00;14.27;;;3.90;;
20101;SDS011;10210;52.284;9.892;2024-03-23T08:15:26;15.80;;;3.67;;
20101;SDS011;10210;52.284;9.892;2024-03-23T08:17:54;15.37;;;3.67;;
20101;SDS011;10210;52.284;9.892;2024-03-23T08:20:20;15.90;;;4.23;;
20101;SDS011;10210;52.284;9.892;2024-03-23T08:22:47;12.30;;;3.87;;
20101;SDS011;10210;52.284;9.892;2024-03-23T08:25:13;16.57;;;4.57;;
20101;SDS011;10210;52.284;9.892;2024-03-23T08:27:39;18.57;;;5.67;;
20101;SDS011;10210;52.284;9.892;2024-03-23T08:30:09;15.02;;;4.80;;
20101;SDS011;10210;52.284;9.892;2024-03-23T08:32:36;20.20;;;6.33;;
20101;SDS011;10210;52.284;9.892;2024-03-23T08:35:02;17.87;;;5.60;;
20101;SDS011;10210;52.284;9.892;2024-03-23T08:37:28;19.97;;;6.90;;
20101;SDS011;10210;52.284;9.892;2024-03-23T08:39:54;19.63;;;7.17;;
20101;SDS011;10210;52.284;9.892;2024-03-23T08:42:20;28.10;;;8.73;;
20101;SDS011;10210;52.284;9.892;2024-03-23T08:44:47;26.93;;;9.50;;
20101;SDS011;10210;52.284;9.892;2024-03-23T08:47:16;25.57;;;9.07;;
20101;SDS011;10210;52.284;9.892;2024-03-23T08:49:42;31.23;;;8.70;;
20101;SDS011;10210;52.284;9.892;2024-03-23T08:52:09;21.57;;;7.00;;
20101;SDS011;10210;52.284;9.892;2024-03-23T08:54:35;23.80;;;8.23;;
20101;SDS011;10210;52.284;9.892;2024-03-23T08:57:02;23.90;;;9.07;;
20101;SDS011;10210;52.284;9.892;2024-03-23T08:59:28;21.20;;;7.73;;
20101;SDS011;10210;52.284;9.892;2024-03-23T09:01:54;23.80;;;7.40;;
20101;SDS011;10210;52.284;9.892;2024-03-23T09:04:21;21.63;;;7.87;;
20101;SDS011;10210;52.284;9.892;2024-03-23T09:06:47;21.03;;;7.57;;
20101;SDS011;10210;52.284;9.892;2024-03-23T09:09:13;22.67;;;7.23;;
20101;SDS011;10210;52.284;9.892;2024-03-23T09:11:39;23.40;;;7.27;;
20101;SDS011;10210;52.284;9.892;2024-03-23T09:14:05;19.83;;;6.83;;
20101;SDS011;10210;52.284;9.892;2024-03-23T09:16:31;19.67;;;6.33;;
20101;SDS011;10210;52.284;9.892;2024-03-23T09:18:57;24.10;;;5.90;;
20101;SDS011;10210;52.284;9.892;2024-03-23T09:21:23;19.13;;;5.87;;
20101;SDS011;10210;52.284;9.892;2024-03-23T09:23:49;21.43;;;6.23;;
20101;SDS011;10210;52.284;9.892;2024-03-23T09:26:15;22.50;;;6.70;;
20101;SDS011;10210;52.284;9.892;2024-03-23T09:28:41;20.03;;;6.13;;
20101;SDS011;10210;52.284;9.892;2024-03-23T09:31:08;20.63;;;6.13;;
20101;SDS011;10210;52.284;9.892;2024-03-23T09:33:39;20.53;;;7.20;;
20101;SDS011;10210;52.284;9.892;2024-03-23T09:36:07;22.13;;;6.83;;
20101;SDS011;10210;52.284;9.892;2024-03-23T09:38:34;21.53;;;7.07;;
20101;SDS011;10210;52.284;9.892;2024-03-23T09:41:06;26.00;;;7.57;;
20101;SDS011;10210;52.284;9.892;2024-03-23T09:43:35;23.07;;;6.67;;
20101;SDS011;10210;52.284;9.892;2024-03-23T09:46:01;23.07;;;6.87;;
20101;SDS011;10210;52.284;9.892;2024-03-23T09:48:28;25.20;;;6.50;;
20101;SDS011;10210;52.284;9.892;2024-03-23T09:50:54;19.40;;;6.17;;
20101;SDS011;10210;52.284;9.892;2024-03-23T09:53:20;19.47;;;5.80;;
20101;SDS011;10210;52.284;9.892;2024-03-23T09:55:47;14.33;;;4.37;;
20101;SDS011;10210;52.284;9.892;2024-03-23T09:58:14;20.00;;;5.47;;
20101;SDS011;10210;52.284;9.892;2024-03-23T10:00:41;17.20;;;4.53;;
20101;SDS011;10210;52.284;9.892;2024-03-23T10:03:08;13.73;;;3.60;;
20101;SDS011;10210;52.284;9.892;2024-03-23T10:05:36;13.63;;;3.70;;
20101;SDS011;10210;52.284;9.892;2024-03-23T10:10:44;14.93;;;4.30;;
20101;SDS011;10210;52.284;9.892;2024-03-23T10:13:11;16.20;;;4.00;;
20101;SDS011;10210;52.284;9.892;2024-03-23T10:15:54;16.67;;;3.83;;
20101;SDS011;10210;52.284;9.892;2024-03-23T10:18:21;15.17;;;3.97;;
20101;SDS011;10210;52.284;9.892;2024-03-23T10:20:50;13.00;;;3.90;;
20101;SDS011;10210;52.284;9.892;2024-03-23T10:23:36;13.00;;;3.50;;
20101;SDS011;10210;52.284;9.892;2024-03-23T10:26:20;14.97;;;3.43;;
20101;SDS011;10210;52.284;9.892;2024-03-23T10:31:32;13.73;;;3.30;;
20101;SDS011;10210;52.284;9.892;2024-03-23T10:34:00;15.50;;;4.07;;
20101;SDS011;10210;52.284;9.892;2024-03-23T10:36:28;13.47;;;3.53;;
20101;SDS011;10210;52.284;9.892;2024-03-23T10:38:55;13.67;;;3.60;;
20101;SDS011;10210;52.284;9.892;2024-03-23T10:41:27;15.33;;;3.20;;
20101;SDS011;10210;52.284;9.892;2024-03-23T10:43:56;14.57;;;3.47;;
20101;SDS011;10210;52.284;9.892;2024-03-23T10:46:24;15.50;;;3.67;;
20101;SDS011;10210;52.284;9.892;2024-03-23T10:48:51;14.43;;;3.17;;
20101;SDS011;10210;52.284;9.892;2024-03-23T10:51:17;15.53;;;3.63;;
20101;SDS011;10210;52.284;9.892;2024-03-23T10:53:43;12.90;;;3.07;;
20101;SDS011;10210;52.284;9.892;2024-03-23T10:56:11;10.47;;;3.03;;
20101;SDS011;10210;52.284;9.892;2024-03-23T10:58:40;9.70;;;2.70;;
20101;SDS011;10210;52.284;9.892;2024-03-23T11:01:11;13.53;;;3.60;;
20101;SDS011;10210;52.284;9.892;2024-03-23T11:03:38;15.93;;;3.90;;
20101;SDS011;10210;52.284;9.892;2024-03-23T11:06:09;12.43;;;3.80;;
20101;SDS011;10210;52.284;9.892;2024-03-23T11:08:36;13.20;;;2.87;;
20101;SDS011;10210;52.284;9.892;2024-03-23T11:11:19;12.83;;;2.77;;
20101;SDS011;10210;52.284;9.892;2024-03-23T11:13:50;12.13;;;3.00;;
20101;SDS011;10210;52.284;9.892;2024-03-23T11:22:04;10.03;;;2.50;;
20101;SDS011;10210;52.284;9.892;2024-03-23T11:24:30;11.07;;;3.00;;
20101;SDS011;10210;52.284;9.892;2024-03-23T11:26:57;10.53;;;2.73;;
20101;SDS011;10210;52.284;9.892;2024-03-23T11:29:26;11.03;;;3.03;;
20101;SDS011;10210;52.284;9.892;2024-03-23T11:31:54;8.43;;;3.10;;
20101;SDS011;10210;52.284;9.892;2024-03-23T11:34:21;10.70;;;2.33;;
20101;SDS011;10210;52.284;9.892;2024-03-23T11:36:47;11.73;;;3.33;;
20101;SDS011;10210;52.284;9.892;2024-03-23T11:39:16;10.53;;;2.37;;
20101;SDS011;10210;52.284;9.892;2024-03-23T11:41:50;8.00;;;2.43;;
20101;SDS011;10210;52.284;9.892;2024-03-23T11:44:21;6.63;;;2.30;;
20101;SDS011;10210;52.284;9.892;2024-03-23T11:46:48;8.97;;;2.40;;
20101;SDS011;10210;52.284;9.892;2024-03-23T11:49:19;11.03;;;2.53;;
20101;SDS011;10210;52.284;9.892;2024-03-23T11:51:53;13.03;;;3.13;;
20101;SDS011;10210;52.284;9.892;2024-03-23T11:54:20;11.07;;;3.07;;
20101;SDS011;10210;52.284;9.892;2024-03-23T11:56:53;10.40;;;3.30;;
20101;SDS011;10210;52.284;9.892;2024-03-23T12:02:06;11.90;;;3.77;;
20101;SDS011;10210;52.284;9.892;2024-03-23T12:04:35;13.27;;;4.00;;
20101;SDS011;10210;52.284;9.892;2024-03-23T12:07:14;11.93;;;3.70;;
20101;SDS011;10210;52.284;9.892;2024-03-23T12:09:44;11.80;;;3.90;;
20101;SDS011;10210;52.284;9.892;2024-03-23T12:14:45;24.30;;;6.57;;
20101;SDS011;10210;52.284;9.892;2024-03-23T12:17:28;14.83;;;3.90;;
20101;SDS011;10210;52.284;9.892;2024-03-23T12:19:54;13.60;;;4.70;;
20101;SDS011;10210;52.284;9.892;2024-03-23T12:22:20;9.77;;;2.83;;
20101;SDS011;10210;52.284;9.892;2024-03-23T12:24:48;10.13;;;2.80;;
20101;SDS011;10210;52.284;9.892;2024-03-23T12:27:14;6.63;;;2.20;;
20101;SDS011;10210;52.284;9.892;2024-03-23T12:29:42;7.87;;;2.30;;
20101;SDS011;10210;52.284;9.892;2024-03-23T12:32:10;9.40;;;2.97;;
20101;SDS011;10210;52.284;9.892;2024-03-23T12:34:38;9.20;;;2.90;;
20101;SDS011;10210;52.284;9.892;2024-03-23T12:37:04;10.47;;;2.87;;
20101;SDS011;10210;52.284;9.892;2024-03-23T12:39:34;11.37;;;3.13;;
20101;SDS011;10210;52.284;9.892;2024-03-23T12:42:00;11.30;;;3.40;;
20101;SDS011;10210;52.284;9.892;2024-03-23T12:44:29;10.23;;;3.23;;
20101;SDS011;10210;52.284;9.892;2024-03-23T12:46:56;11.27;;;3.50;;
20101;SDS011;10210;52.284;9.892;2024-03-23T12:49:22;14.43;;;4.07;;
20101;SDS011;10210;52.284;9.892;2024-03-23T12:51:55;10.33;;;3.50;;
20101;SDS011;10210;52.284;9.892;2024-03-23T13:07:21;7.00;;;2.57;;
20101;SDS011;10210;52.284;9.892;2024-03-23T13:09:52;6.90;;;2.60;;
20101;SDS011;10210;52.284;9.892;2024-03-23T13:12:21;7.60;;;1.90;;
20101;SDS011;10210;52.284;9.892;2024-03-23T13:14:47;6.00;;;1.60;;
20101;SDS011;10210;52.284;9.892;2024-03-23T13:17:13;6.90;;;1.70;;
20101;SDS011;10210;52.284;9.892;2024-03-23T13:19:40;5.90;;;2.03;;
20101;SDS011;10210;52.284;9.892;2024-03-23T13:22:06;8.57;;;2.43;;
20101;SDS011;10210;52.284;9.892;2024-03-23T13:24:34;6.47;;;2.20;;
20101;SDS011;10210;52.284;9.892;2024-03-23T13:27:01;4.97;;;1.80;;
20101;SDS011;10210;52.284;9.892;2024-03-23T13:29:27;4.70;;;1.70;;
20101;SDS011;10210;52.284;9.892;2024-03-23T13:32:09;6.15;;;2.00;;
20101;SDS011;10210;52.284;9.892;2024-03-23T13:34:36;6.17;;;1.93;;
20101;SDS011;10210;52.284;9.892;2024-03-23T13:37:02;6.47;;;2.30;;
20101;SDS011;10210;52.284;9.892;2024-03-23T13:39:28;9.53;;;2.90;;
20101;SDS011;10210;52.284;9.892;2024-03-23T13:41:55;6.20;;;2.43;;
20101;SDS011;10210;52.284;9.892;2024-03-23T13:44:21;7.00;;;2.60;;
20101;SDS011;10210;52.284;9.892;2024-03-23T13:46:47;9.77;;;2.77;;
20101;SDS011;10210;52.284;9.892;2024-03-23T13:51:53;8.57;;;2.63;;
20101;SDS011;10210;52.284;9.892;2024-03-23T13:54:20;8.27;;;3.00;;
20101;SDS011;10210;52.284;9.892;2024-03-23T13:56:53;6.00;;;2.40;;
20101;SDS011;10210;52.284;9.892;2024-03-23T13:59:21;10.00;;;2.50;;
20101;SDS011;10210;52.284;9.892;2024-03-23T14:01:51;5.87;;;2.17;;
20101;SDS011;10210;52.284;9.892;2024-03-23T14:04:17;9.27;;;2.27;;
20101;SDS011;10210;52.284;9.892;2024-03-23T14:06:45;7.53;;;2.40;;
20101;SDS011;10210;52.284;9.892;2024-03-23T14:09:11;6.67;;;1.90;;
20101;SDS011;10210;52.284;9.892;2024-03-23T14:11:39;6.23;;;2.53;;
20101;SDS011;10210;52.284;9.892;2024-03-23T14:14:09;7.10;;;2.70;;
20101;SDS011;10210;52.284;9.892;2024-03-23T14:16:35;7.63;;;2.37;;
20101;SDS011;10210;52.284;9.892;2024-03-23T14:19:04;6.77;;;2.03;;
20101;SDS011;10210;52.284;9.892;2024-03-23T14:21:36;9.10;;;2.73;;
20101;SDS011;10210;52.284;9.892;2024-03-23T14:24:03;8.37;;;2.60;;
20101;SDS011;10210;52.284;9.892;2024-03-23T14:26:29;6.00;;;2.40;;
20101;SDS011;10210;52.284;9.892;2024-03-23T14:28:55;6.40;;;2.53;;
20101;SDS011;10210;52.284;9.892;2024-03-23T14:31:21;9.07;;;2.57;;
20101;SDS011;10210;52.284;9.892;2024-03-23T14:33:50;7.10;;;2.50;;
20101;SDS011;10210;52.284;9.892;2024-03-23T14:36:16;9.03;;;2.57;;
20101;SDS011;10210;52.284;9.892;2024-03-23T14:38:52;8.93;;;2.90;;
20101;SDS011;10210;52.284;9.892;2024-03-23T14:41:18;10.00;;;2.77;;
20101;SDS011;10210;52.284;9.892;2024-03-23T14:43:44;6.40;;;2.90;;
20101;SDS011;10210;52.284;9.892;2024-03-23T14:46:18;8.37;;;2.50;;
20101;SDS011;10210;52.284;9.892;2024-03-23T14:48:45;3.83;;;2.00;;
20101;SDS011;10210;52.284;9.892;2024-03-23T14:51:11;7.77;;;2.60;;
20101;SDS011;10210;52.284;9.892;2024-03-23T14:53:38;5.90;;;2.03;;
20101;SDS011;10210;52.284;9.892;2024-03-23T14:56:06;5.97;;;2.57;;
20101;SDS011;10210;52.284;9.892;2024-03-23T14:58:37;4.97;;;2.50;;
20101;SDS011;10210;52.284;9.892;2024-03-23T15:01:04;5.30;;;1.70;;
20101;SDS011;10210;52.284;9.892;2024-03-23T15:03:34;3.07;;;1.90;;
20101;SDS011;10210;52.284;9.892;2024-03-23T15:06:04;2.00;;;1.20;;
20101;SDS011;10210;52.284;9.892;2024-03-23T15:08:31;2.67;;;1.30;;
20101;SDS011;10210;52.284;9.892;2024-03-23T15:11:01;4.27;;;1.47;;
20101;SDS011;10210;52.284;9.892;2024-03-23T15:13:30;5.87;;;1.70;;
20101;SDS011;10210;52.284;9.892;2024-03-23T15:15:59;3.73;;;1.53;;
20101;SDS011;10210;52.284;9.892;2024-03-23T15:18:25;7.30;;;1.80;;
20101;SDS011;10210;52.284;9.892;2024-03-23T15:20:53;4.83;;;2.10;;
20101;SDS011;10210;52.284;9.892;2024-03-23T15:23:21;7.77;;;2.20;;
20101;SDS011;10210;52.284;9.892;2024-03-23T15:25:56;5.13;;;2.00;;
20101;SDS011;10210;52.284;9.892;2024-03-23T15:28:23;7.17;;;1.83;;
20101;SDS011;10210;52.284;9.892;2024-03-23T15:30:51;9.27;;;2.33;;
20101;SDS011;10210;52.284;9.892;2024-03-23T15:33:17;7.30;;;2.50;;
20101;SDS011;10210;52.284;9.892;2024-03-23T15:35:44;10.43;;;3.00;;
20101;SDS011;10210;52.284;9.892;2024-03-23T15:38:10;7.37;;;2.40;;
20101;SDS011;10210;52.284;9.892;2024-03-23T15:40:36;6.47;;;2.17;;
20101;SDS011;10210;52.284;9.892;2024-03-23T15:43:02;9.50;;;2.50;;
20101;SDS011;10210;52.284;9.892;2024-03-23T15:45:28;7.30;;;2.50;;
20101;SDS011;10210;52.284;9.892;2024-03-23T15:47:54;6.27;;;2.23;;
20101;SDS011;10210;52.284;9.892;2024-03-23T15:50:20;6.93;;;2.23;;
20101;SDS011;10210;52.284;9.892;2024-03-23T15:52:46;6.70;;;2.30;;
20101;SDS011;10210;52.284;9.892;2024-03-23T15:55:13;7.43;;;2.27;;
20101;SDS011;10210;52.284;9.892;2024-03-23T15:57:39;4.20;;;2.00;;
20101;SDS011;10210;52.284;9.892;2024-03-23T16:00:06;7.47;;;2.17;;
20101;SDS011;10210;52.284;9.892;2024-03-23T16:10:20;7.40;;;2.00;;
20101;SDS011;10210;52.284;9.892;2024-03-23T16:12:46;3.80;;;1.63;;
20101;SDS011;10210;52.284;9.892;2024-03-23T16:15:12;3.70;;;1.70;;